createdAt,value
2017-08-06T00:00:56.675Z,75.20
2017-08-06T00:03:58.965Z,76.40
2017-08-06T00:07:00.454Z,75.20
2017-08-06T00:10:01.893Z,74.20
2017-08-06T00:13:03.400Z,74.80
2017-08-06T00:16:05.173Z,74.00
2017-08-06T00:19:06.648Z,75.00
2017-08-06T00:22:08.137Z,74.60
2017-08-06T00:25:09.694Z,73.50
2017-08-06T00:28:11.162Z,73.60
2017-08-06T00:31:13.379Z,75.80
2017-08-06T00:34:14.858Z,74.90
2017-08-06T00:37:16.529Z,74.20
2017-08-06T00:40:18.776Z,75.50
2017-08-06T00:43:20.291Z,74.80
2017-08-06T00:46:21.742Z,74.30
2017-08-06T00:49:23.248Z,73.90
2017-08-06T00:52:24.727Z,74.30
2017-08-06T00:55:26.920Z,74.80
2017-08-06T00:58:28.363Z,74.00
2017-08-06T01:01:29.868Z,73.50
2017-08-06T01:04:31.356Z,74.50
2017-08-06T01:07:32.773Z,74.40
2017-08-06T01:10:34.245Z,73.80
2017-08-06T01:13:35.776Z,73.40
2017-08-06T01:16:37.272Z,74.10
2017-08-06T01:19:38.763Z,72.50
2017-08-06T01:22:40.226Z,72.60
2017-08-06T01:25:41.731Z,72.50
2017-08-06T01:28:43.215Z,73.90
2017-08-06T01:31:44.657Z,73.30
2017-08-06T01:34:46.168Z,73.10
2017-08-06T01:37:48.390Z,73.70
2017-08-06T01:40:49.936Z,73.00
2017-08-06T01:43:51.444Z,71.50
2017-08-06T01:46:53.004Z,71.60
2017-08-06T01:49:54.527Z,71.50
2017-08-06T01:52:56.043Z,72.50
2017-08-06T01:55:57.564Z,72.10
2017-08-06T01:58:59.789Z,73.30
2017-08-06T02:02:01.322Z,72.10
2017-08-06T02:05:02.847Z,72.90
2017-08-06T02:08:05.089Z,72.70
2017-08-06T02:11:06.784Z,72.10
2017-08-06T02:14:09.012Z,72.80
2017-08-06T02:17:10.521Z,71.80
2017-08-06T02:20:12.014Z,71.80
2017-08-06T02:23:13.544Z,72.30
2017-08-06T02:26:15.023Z,71.50
2017-08-06T02:29:16.565Z,71.50
2017-08-06T02:32:18.002Z,72.20
2017-08-06T02:35:19.498Z,72.10
2017-08-06T02:38:21.128Z,71.50
2017-08-06T02:41:22.566Z,71.60
2017-08-06T02:44:24.047Z,72.20
2017-08-06T02:47:25.511Z,72.60
2017-08-06T02:50:27.047Z,72.50
2017-08-06T02:53:28.490Z,72.20
2017-08-06T02:56:29.949Z,70.80
2017-08-06T02:59:31.417Z,71.30
2017-08-06T03:02:32.945Z,72.20
2017-08-06T03:05:34.369Z,71.30
2017-08-06T03:08:35.854Z,72.50
2017-08-06T03:11:37.301Z,72.40
2017-08-06T03:14:38.842Z,71.30
2017-08-06T03:17:40.573Z,72.60
2017-08-06T03:20:42.758Z,72.40
2017-08-06T03:23:44.247Z,72.10
2017-08-06T03:26:45.699Z,71.30
2017-08-06T03:29:47.219Z,70.90
2017-08-06T03:32:48.692Z,70.60
2017-08-06T03:35:50.198Z,70.50
2017-08-06T03:38:52.463Z,72.10
2017-08-06T03:41:53.901Z,71.20
2017-08-06T03:44:55.727Z,72.10
2017-08-06T03:47:57.225Z,70.60
2017-08-06T03:50:58.633Z,70.70
2017-08-06T03:54:00.129Z,72.00
2017-08-06T03:57:01.600Z,71.60
2017-08-06T04:00:03.264Z,71.10
2017-08-06T04:03:05.470Z,72.60
2017-08-06T04:06:07.027Z,70.90
2017-08-06T04:09:08.511Z,71.80
2017-08-06T04:12:10.015Z,70.70
2017-08-06T04:15:11.468Z,70.50
2017-08-06T04:18:12.927Z,71.20
2017-08-06T04:21:14.670Z,71.10
2017-08-06T04:24:16.896Z,72.00
2017-08-06T04:27:18.377Z,71.50
2017-08-06T04:30:19.811Z,71.50
2017-08-06T04:33:21.356Z,72.20
2017-08-06T04:36:22.788Z,72.90
2017-08-06T04:39:24.296Z,72.00
2017-08-06T04:42:25.752Z,70.70
2017-08-06T04:45:27.978Z,72.80
2017-08-06T04:48:29.509Z,71.30
2017-08-06T04:51:31.083Z,72.00
2017-08-06T04:54:32.632Z,72.60
2017-08-06T04:57:34.071Z,72.10
2017-08-06T05:00:35.647Z,72.10
2017-08-06T05:03:37.101Z,72.30
2017-08-06T05:06:38.566Z,73.90
2017-08-06T05:09:40.258Z,73.60
2017-08-06T05:12:42.471Z,74.70
2017-08-06T05:15:43.963Z,73.50
2017-08-06T05:18:45.533Z,74.10
2017-08-06T05:21:47.720Z,75.30
2017-08-06T05:24:49.887Z,75.90
2017-08-06T05:27:51.376Z,75.00
2017-08-06T05:30:52.801Z,74.40
2017-08-06T05:33:54.279Z,74.30
2017-08-06T05:36:55.875Z,74.20
2017-08-06T05:39:58.148Z,76.80
2017-08-06T05:42:59.775Z,75.70
2017-08-06T05:46:01.243Z,74.70
2017-08-06T05:49:02.796Z,75.90
2017-08-06T05:52:04.276Z,75.60
2017-08-06T05:55:06.526Z,76.40
2017-08-06T05:58:07.992Z,75.10
2017-08-06T06:01:10.243Z,76.60
2017-08-06T06:04:11.719Z,76.20
2017-08-06T06:07:13.991Z,76.40
2017-08-06T06:10:15.454Z,76.10
2017-08-06T06:13:17.712Z,77.40
2017-08-06T06:16:20.010Z,76.50
2017-08-06T06:19:21.515Z,76.10
2017-08-06T06:22:22.976Z,77.00
2017-08-06T06:25:24.401Z,76.40
2017-08-06T06:28:25.945Z,76.50
2017-08-06T06:31:27.402Z,76.00
2017-08-06T06:34:29.011Z,74.90
2017-08-06T06:37:30.513Z,76.50
2017-08-06T06:40:32.006Z,76.80
2017-08-06T06:43:33.516Z,76.10
2017-08-06T06:46:35.004Z,76.70
2017-08-06T06:49:36.708Z,74.90
2017-08-06T06:52:38.201Z,76.10
2017-08-06T06:55:39.780Z,76.10
2017-08-06T06:58:41.214Z,75.60
2017-08-06T07:01:42.713Z,74.80
2017-08-06T07:04:44.898Z,76.60
2017-08-06T07:07:47.191Z,76.00
2017-08-06T07:10:48.687Z,75.50
2017-08-06T07:13:50.154Z,75.60
2017-08-06T07:16:51.873Z,75.60
2017-08-06T07:19:53.408Z,75.00
2017-08-06T07:22:55.037Z,74.90
2017-08-06T07:25:57.195Z,75.30
2017-08-06T07:28:58.702Z,74.40
2017-08-06T07:32:00.129Z,74.00
2017-08-06T07:35:02.405Z,73.00
2017-08-06T07:38:03.974Z,72.30
2017-08-06T07:41:05.519Z,73.20
2017-08-06T07:44:07.294Z,71.50
2017-08-06T07:47:08.771Z,72.80
2017-08-06T07:50:10.317Z,72.00
2017-08-06T07:53:11.813Z,71.60
2017-08-06T07:56:14.085Z,71.10
2017-08-06T07:59:15.598Z,69.00
2017-08-06T08:02:17.098Z,69.20
2017-08-06T08:05:18.997Z,70.20
2017-08-06T08:08:20.477Z,70.80
2017-08-06T08:11:22.102Z,69.00
2017-08-06T08:14:23.651Z,69.30
2017-08-06T08:17:25.172Z,67.60
2017-08-06T08:20:26.714Z,69.50
2017-08-06T08:23:28.257Z,69.80
2017-08-06T08:26:29.735Z,71.00
2017-08-06T08:29:31.300Z,64.90
2017-08-06T08:32:33.640Z,66.90
2017-08-06T08:35:35.130Z,65.40
2017-08-06T08:38:36.647Z,65.00
2017-08-06T08:41:38.151Z,64.60
2017-08-06T08:44:39.666Z,66.30
2017-08-06T08:47:41.190Z,67.30
2017-08-06T08:50:42.747Z,65.70
2017-08-06T08:53:44.204Z,64.60
2017-08-06T08:56:45.713Z,68.60
2017-08-06T08:59:48.064Z,66.10
2017-08-06T09:02:49.519Z,66.00
2017-08-06T09:05:51.242Z,67.10
2017-08-06T09:08:52.760Z,65.90
2017-08-06T09:11:54.328Z,57.50
2017-08-06T09:14:55.743Z,56.90
2017-08-06T09:17:58.017Z,60.30
2017-08-06T09:21:00.160Z,64.10
2017-08-06T09:24:02.409Z,63.90
2017-08-06T09:27:03.861Z,60.60
2017-08-06T09:30:05.344Z,59.60
2017-08-06T09:33:06.862Z,60.60
2017-08-06T09:36:15.264Z,58.30
2017-08-06T09:39:16.677Z,57.40
2017-08-06T09:42:18.073Z,59.30
2017-08-06T09:45:19.502Z,57.10
2017-08-06T09:48:21.606Z,61.40
2017-08-06T09:51:23.072Z,61.20
2017-08-06T09:54:24.621Z,56.80
2017-08-06T09:57:26.017Z,58.10
2017-08-06T10:00:28.272Z,59.00
2017-08-06T10:03:29.671Z,58.90
2017-08-06T10:06:31.082Z,60.00
2017-08-06T10:09:32.434Z,55.90
2017-08-06T10:12:33.849Z,55.70
2017-08-06T10:15:35.209Z,55.20
2017-08-06T10:18:38.161Z,55.00
2017-08-06T10:21:39.828Z,57.90
2017-08-06T10:24:41.254Z,53.40
2017-08-06T10:27:43.411Z,58.00
2017-08-06T10:30:44.801Z,57.80
2017-08-06T10:33:46.230Z,54.70
2017-08-06T10:36:48.335Z,57.60
2017-08-06T10:39:49.790Z,57.50
2017-08-06T10:42:51.163Z,55.10
2017-08-06T10:45:52.548Z,53.40
2017-08-06T10:48:54.689Z,53.30
2017-08-06T10:51:56.119Z,52.70
2017-08-06T10:54:57.512Z,53.70
2017-08-06T10:57:58.901Z,54.30
2017-08-06T11:01:00.238Z,53.60
2017-08-06T11:04:02.358Z,52.30
2017-08-06T11:07:03.743Z,52.10
2017-08-06T11:10:05.931Z,54.90
2017-08-06T11:13:07.389Z,54.50
2017-08-06T11:16:08.741Z,54.20
2017-08-06T11:19:10.124Z,50.60
2017-08-06T11:22:11.514Z,50.40
2017-08-06T11:25:13.649Z,53.30
2017-08-06T11:28:15.017Z,53.20
2017-08-06T11:31:16.393Z,53.00
2017-08-06T11:34:17.730Z,51.30
2017-08-06T11:37:19.121Z,50.90
2017-08-06T11:40:20.728Z,54.50
2017-08-06T11:43:22.116Z,54.50
2017-08-06T11:46:23.660Z,54.70
2017-08-06T11:49:25.078Z,52.40
2017-08-06T11:52:26.606Z,50.40
2017-08-06T11:55:27.945Z,54.30
2017-08-06T11:58:29.354Z,50.10
2017-08-06T12:01:30.737Z,50.90
2017-08-06T12:04:32.177Z,49.20
2017-08-06T12:07:33.567Z,46.90
2017-08-06T12:10:35.018Z,45.10
2017-08-06T12:13:36.557Z,45.70
2017-08-06T12:16:37.973Z,49.20
2017-08-06T12:19:40.135Z,50.00
2017-08-06T12:22:42.255Z,53.30
2017-08-06T12:25:43.651Z,53.20
2017-08-06T12:28:45.822Z,46.50
2017-08-06T12:31:48.021Z,45.10
2017-08-06T12:34:49.441Z,45.10
2017-08-06T12:37:51.621Z,47.10
2017-08-06T12:40:53.765Z,44.00
2017-08-06T12:43:55.129Z,44.00
2017-08-06T12:46:56.549Z,47.40
2017-08-06T12:49:57.961Z,47.80
2017-08-06T12:52:59.441Z,50.30
2017-08-06T12:56:00.837Z,50.20
2017-08-06T12:59:02.262Z,44.40
2017-08-06T13:02:03.782Z,43.10
2017-08-06T13:05:05.195Z,44.60
2017-08-06T13:08:07.374Z,46.20
2017-08-06T13:11:09.498Z,41.90
2017-08-06T13:14:10.955Z,41.80
2017-08-06T13:17:12.385Z,43.20
2017-08-06T13:20:13.881Z,44.30
2017-08-06T13:23:16.157Z,51.20
2017-08-06T13:26:18.287Z,47.10
2017-08-06T13:29:19.772Z,47.00
2017-08-06T13:32:21.935Z,48.60
2017-08-06T13:35:24.106Z,50.60
2017-08-06T13:38:26.253Z,46.30
2017-08-06T13:41:27.733Z,45.70
2017-08-06T13:44:30.253Z,46.10
2017-08-06T13:47:31.644Z,45.50
2017-08-06T13:50:33.071Z,46.40
2017-08-06T13:53:34.567Z,42.30
2017-08-06T13:56:36.787Z,43.00
2017-08-06T13:59:38.264Z,42.90
2017-08-06T14:02:39.701Z,47.50
2017-08-06T14:05:41.291Z,40.50
2017-08-06T14:08:43.443Z,42.90
2017-08-06T14:11:44.860Z,42.80
2017-08-06T14:14:46.242Z,41.20
2017-08-06T14:17:47.668Z,42.50
2017-08-06T14:20:49.025Z,40.30
2017-08-06T14:23:50.422Z,37.30
2017-08-06T14:26:51.821Z,39.80
2017-08-06T14:29:53.287Z,40.60
2017-08-06T14:32:54.867Z,41.10
2017-08-06T14:35:56.993Z,41.10
2017-08-06T14:38:58.395Z,39.80
2017-08-06T14:41:59.764Z,39.00
2017-08-06T14:45:01.893Z,39.80
2017-08-06T14:48:03.420Z,39.70
2017-08-06T14:51:04.808Z,43.10
2017-08-06T14:54:06.221Z,41.60
2017-08-06T14:57:07.608Z,41.80
2017-08-06T15:00:09.073Z,37.60
2017-08-06T15:03:10.449Z,42.80
2017-08-06T15:06:11.894Z,42.70
2017-08-06T15:09:13.281Z,41.50
2017-08-06T15:12:14.745Z,38.20
2017-08-06T15:15:16.165Z,41.30
2017-08-06T15:18:17.564Z,40.20
2017-08-06T15:21:18.990Z,36.80
2017-08-06T15:24:20.371Z,42.50
2017-08-06T15:27:21.770Z,39.10
2017-08-06T15:30:23.167Z,40.30
2017-08-06T15:33:24.607Z,43.00
2017-08-06T15:36:25.968Z,41.90
2017-08-06T15:39:27.489Z,42.00
2017-08-06T15:42:28.867Z,37.40
2017-08-06T15:45:30.405Z,38.70
2017-08-06T15:48:31.864Z,40.80
2017-08-06T15:51:33.336Z,44.00
2017-08-06T15:54:34.769Z,43.40
2017-08-06T15:57:36.126Z,43.00
2017-08-06T16:00:37.555Z,45.00
2017-08-06T16:03:38.896Z,41.30
2017-08-06T16:06:40.432Z,43.40
2017-08-06T16:09:41.852Z,44.90
2017-08-06T16:12:43.303Z,46.10
2017-08-06T16:15:44.703Z,45.80
2017-08-06T16:18:46.145Z,48.00
2017-08-06T16:21:47.682Z,49.10
2017-08-06T16:24:49.842Z,50.10
2017-08-06T16:27:51.334Z,50.10
2017-08-06T16:30:52.726Z,48.90
2017-08-06T16:33:54.181Z,52.50
2017-08-06T16:36:55.570Z,54.00
2017-08-06T16:39:57.761Z,55.00
2017-08-06T16:42:59.292Z,55.00
2017-08-06T16:46:01.490Z,51.80
2017-08-06T16:49:02.957Z,51.70
2017-08-06T16:52:04.401Z,53.20
2017-08-06T16:55:05.848Z,51.50
2017-08-06T16:58:07.269Z,52.00
2017-08-06T17:01:09.485Z,51.40
2017-08-06T17:04:10.934Z,51.30
2017-08-06T17:07:12.343Z,48.10
2017-08-06T17:10:14.611Z,51.60
2017-08-06T17:13:16.774Z,51.20
2017-08-06T17:16:19.120Z,52.40
2017-08-06T17:19:20.546Z,52.30
2017-08-06T17:22:22.071Z,43.60
2017-08-06T17:25:24.231Z,46.80
2017-08-06T17:28:26.397Z,51.20
2017-08-06T17:31:28.603Z,47.10
2017-08-06T17:34:30.153Z,47.00
2017-08-06T17:37:32.229Z,48.10
2017-08-06T17:40:33.633Z,47.90
2017-08-06T17:43:35.474Z,50.50
2017-08-06T17:46:37.646Z,57.50
2017-08-06T17:49:39.830Z,56.80
2017-08-06T17:52:41.302Z,56.80
2017-08-06T17:55:42.786Z,59.30
2017-08-06T17:58:44.244Z,60.30
2017-08-06T18:01:45.671Z,60.20
2017-08-06T18:04:47.240Z,60.00
2017-08-06T18:07:48.657Z,58.10
2017-08-06T18:10:50.284Z,58.20
2017-08-06T18:13:52.655Z,60.50
2017-08-06T18:16:54.929Z,60.00
2017-08-06T18:19:56.534Z,60.00
2017-08-06T18:23:00.071Z,60.00
2017-08-06T18:26:02.853Z,59.40
2017-08-06T18:29:05.112Z,60.40
2017-08-06T18:32:08.456Z,60.40
2017-08-06T18:35:10.013Z,60.30
2017-08-06T18:38:12.418Z,60.00
2017-08-06T18:41:14.879Z,60.40
2017-08-06T18:44:18.689Z,60.40
2017-08-06T18:47:20.835Z,60.40
2017-08-06T18:50:22.273Z,60.30
2017-08-06T18:53:23.700Z,60.10
2017-08-06T18:56:25.768Z,59.90
2017-08-06T18:59:27.638Z,60.20
2017-08-06T19:02:31.488Z,59.80
2017-08-06T19:05:34.479Z,59.70
2017-08-06T19:08:35.948Z,59.50
2017-08-06T19:11:38.301Z,59.10
2017-08-06T19:14:39.806Z,59.00
2017-08-06T19:17:42.300Z,59.10
2017-08-06T19:20:45.275Z,59.30
2017-08-06T19:23:46.866Z,59.20
2017-08-06T19:26:48.616Z,59.30
2017-08-06T19:29:51.784Z,59.50
2017-08-06T19:32:54.736Z,59.20
2017-08-06T19:35:56.895Z,59.30
2017-08-06T19:38:58.320Z,59.90
2017-08-06T19:42:01.225Z,59.30
2017-08-06T19:45:04.092Z,59.30
2017-08-06T19:48:06.310Z,59.10
2017-08-06T19:51:07.791Z,59.00
2017-08-06T19:54:09.267Z,58.90
2017-08-06T19:57:11.591Z,59.50
2017-08-06T20:00:14.135Z,59.30
2017-08-06T20:03:15.524Z,58.60
2017-08-06T20:06:17.681Z,59.20
2017-08-06T20:09:19.789Z,59.70
2017-08-06T20:12:21.190Z,59.40
2017-08-06T20:15:23.625Z,59.10
2017-08-06T20:18:27.060Z,58.70
2017-08-06T20:21:28.915Z,58.50
2017-08-06T20:24:30.492Z,59.00
2017-08-06T20:27:32.692Z,59.00
2017-08-06T20:30:34.910Z,57.90
2017-08-06T20:33:36.339Z,58.50
2017-08-06T20:36:38.510Z,58.80
2017-08-06T20:39:39.968Z,59.00
2017-08-06T20:42:41.388Z,59.40
2017-08-06T20:45:43.731Z,59.50
2017-08-06T20:48:47.375Z,59.30
2017-08-06T20:51:49.100Z,60.10
2017-08-06T20:54:50.584Z,58.40
2017-08-06T20:57:52.132Z,58.80
2017-08-06T21:00:53.669Z,59.70
2017-08-06T21:03:55.240Z,58.40
2017-08-06T21:06:57.461Z,59.40
2017-08-06T21:09:58.990Z,58.10
2017-08-06T21:13:00.524Z,59.00
2017-08-06T21:16:02.263Z,58.70
2017-08-06T21:19:04.564Z,60.00
2017-08-06T21:22:06.200Z,59.40
2017-08-06T21:25:07.699Z,59.30
2017-08-06T21:28:09.411Z,58.80
2017-08-06T21:31:11.045Z,60.50
2017-08-06T21:34:12.570Z,60.10
2017-08-06T21:37:14.218Z,59.20
2017-08-06T21:40:15.824Z,59.60
2017-08-06T21:43:17.358Z,59.80
2017-08-06T21:46:18.897Z,60.50
2017-08-06T21:49:20.407Z,60.60
2017-08-06T21:52:22.010Z,61.70
2017-08-06T21:55:23.572Z,60.50
2017-08-06T21:58:25.095Z,61.90
2017-08-06T22:01:27.432Z,62.60
2017-08-06T22:04:29.001Z,61.10
2017-08-06T22:07:30.624Z,62.20
2017-08-06T22:10:32.169Z,61.20
2017-08-06T22:13:33.666Z,61.50
2017-08-06T22:19:43.413Z,61.20
2017-08-06T22:22:44.936Z,62.50
2017-08-06T22:25:46.457Z,60.50
2017-08-06T22:28:48.008Z,61.40
2017-08-06T22:31:50.311Z,62.50
2017-08-06T22:34:51.830Z,61.70
2017-08-06T22:37:53.402Z,60.90
2017-08-06T22:40:55.684Z,62.60
2017-08-06T22:43:58.051Z,62.70
2017-08-06T22:47:00.306Z,62.70
2017-08-06T22:50:01.860Z,60.80
2017-08-06T22:53:03.408Z,61.90
2017-08-06T22:56:04.947Z,62.10
2017-08-06T22:59:06.784Z,62.10
2017-08-06T23:02:08.318Z,61.50
2017-08-06T23:05:10.143Z,63.30
2017-08-06T23:08:12.422Z,63.30
2017-08-06T23:11:13.955Z,63.10
2017-08-06T23:14:15.517Z,62.70
2017-08-06T23:17:17.063Z,63.70
2017-08-06T23:20:18.999Z,62.70
2017-08-06T23:23:20.496Z,62.80
2017-08-06T23:26:22.112Z,61.30
2017-08-06T23:29:23.620Z,62.30
2017-08-06T23:32:25.191Z,60.90
2017-08-06T23:35:26.700Z,60.30
2017-08-06T23:38:28.259Z,62.40
2017-08-06T23:41:29.781Z,61.60
2017-08-06T23:44:31.291Z,62.90
2017-08-06T23:47:33.606Z,63.90
2017-08-06T23:50:35.154Z,63.10
2017-08-06T23:53:36.831Z,62.50
2017-08-06T23:56:38.383Z,63.10
2017-08-06T23:59:39.963Z,62.20
